This is the latest recevied weather packets stored in our database for station/object KM7BEO. If no packets are shown the sender has not sent any weather packets the latest 10 day(s).
| Time | Temp. | Humidity | Pressure | Rain* | Wind** | Luminosity | Snow |
|---|---|---|---|---|---|---|---|
| 1778180428 | 13.89° C | 69% | 1019.7 hPa | 0 mm | - | 690 W/m² | - |
| 1778180126 | 14.44° C | 69% | 1019.9 hPa | 0 mm | - | 691 W/m² | - |
| 1778179822 | 13.89° C | 70% | 1019.8 hPa | 0 mm | - | 679 W/m² | - |
| 1778179521 | 13.33° C | 72% | 1019.8 hPa | 0 mm | - | 507 W/m² | - |
| 1778179218 | 13.33° C | 71% | 1019.9 hPa | 0 mm | - | 550 W/m² | - |
| 1778178914 | 13.89° C | 69% | 1019.9 hPa | 0 mm | - | 674 W/m² | - |
| 1778178611 | 13.89° C | 70% | 1020 hPa | 0 mm | - | 675 W/m² | - |
| 1778178307 | 13.33° C | 71% | 1020 hPa | 0 mm | - | 653 W/m² | - |
| 1778178003 | 12.78° C | 72% | 1019.9 hPa | 0 mm | - | 664 W/m² | - |
| 1778177700 | 13.33° C | 72% | 1019.9 hPa | 0 mm | - | 624 W/m² | - |
| 1778177396 | 13.33° C | 70% | 1019.9 hPa | 0 mm | - | 593 W/m² | - |
| 1778177093 | 13.33° C | 71% | 1019.8 hPa | 0 mm | - | 575 W/m² | - |
| 1778176789 | 12.78° C | 71% | 1020.1 hPa | 0 mm | - | 569 W/m² | - |
| 1778176486 | 12.78° C | 72% | 1020.3 hPa | 0 mm | - | 562 W/m² | - |
| 1778176184 | 13.33° C | 72% | 1020 hPa | 0 mm | - | 556 W/m² | - |
| 1778175881 | 13.33° C | 71% | 1020.1 hPa | 0 mm | - | 549 W/m² | - |
| 1778175578 | 13.33° C | 70% | 1020.1 hPa | 0 mm | - | 548 W/m² | - |
| 1778175275 | 13.33° C | 72% | 1020 hPa | 0 mm | - | 541 W/m² | - |
| 1778174972 | 12.78° C | 72% | 1020.1 hPa | 0 mm | - | 544 W/m² | - |
| 1778174668 | 13.33° C | 72% | 1020 hPa | 0 mm | - | 553 W/m² | - |
| 1778174365 | 12.78° C | 73% | 1020 hPa | 0 mm | - | 544 W/m² | - |
| 1778174061 | 12.78° C | 71% | 1020 hPa | 0 mm | - | 351 W/m² | - |
| 1778173758 | 12.22° C | 74% | 1020.1 hPa | 0 mm | - | 408 W/m² | - |
| 1778173455 | 12.22° C | 73% | 1020.1 hPa | 0 mm | - | 276 W/m² | - |
| 1778173151 | 12.78° C | 72% | 1020.1 hPa | 0 mm | - | 247 W/m² | - |
* Rain latest hour (hover to see other rain measurements)
** Current wind speed in m/s (hover to see current wind gust speed)